createdAt,value
2023-04-09T00:00:16.596Z,8.70
2023-04-09T00:03:27.673Z,9.00
2023-04-09T00:06:20.360Z,9.30
2023-04-09T00:09:19.275Z,9.60
2023-04-09T00:12:17.612Z,9.80
2023-04-09T00:15:24.068Z,9.50
2023-04-09T00:18:21.312Z,10.50
2023-04-09T00:21:12.084Z,9.60
2023-04-09T00:24:05.282Z,9.80
2023-04-09T00:26:58.184Z,8.90
2023-04-09T00:29:53.884Z,9.00
2023-04-09T00:32:45.159Z,8.20
2023-04-09T00:35:37.314Z,8.50
2023-04-09T00:38:30.788Z,10.20
2023-04-09T00:41:23.058Z,8.70
2023-04-09T00:44:16.396Z,9.70
2023-04-09T00:47:08.571Z,9.80
2023-04-09T00:49:59.429Z,9.80
2023-04-09T00:52:51.531Z,9.20
2023-04-09T00:55:43.231Z,10.80
2023-04-09T00:58:36.964Z,9.60
2023-04-09T01:01:28.038Z,10.40
2023-04-09T01:04:18.458Z,10.40
2023-04-09T01:07:12.082Z,10.00
2023-04-09T01:10:06.410Z,11.20
2023-04-09T01:13:06.097Z,11.60
2023-04-09T01:16:01.105Z,11.60
2023-04-09T01:18:53.847Z,12.60
2023-04-09T01:21:45.386Z,12.00
2023-04-09T01:24:43.362Z,13.20
2023-04-09T01:27:44.248Z,14.20
2023-04-09T01:30:35.402Z,12.80
2023-04-09T01:33:28.894Z,12.90
2023-04-09T01:36:21.552Z,12.70
2023-04-09T01:39:14.667Z,15.40
2023-04-09T01:42:09.715Z,15.10
2023-04-09T01:45:06.512Z,14.30
2023-04-09T01:47:57.469Z,14.20
2023-04-09T01:50:54.319Z,15.10
2023-04-09T01:53:49.406Z,15.60
2023-04-09T01:56:48.274Z,16.30
2023-04-09T01:59:42.208Z,14.70
2023-04-09T02:02:36.832Z,17.50
2023-04-09T02:05:32.208Z,15.70
2023-04-09T02:08:24.168Z,15.50
2023-04-09T02:11:17.059Z,14.40
2023-04-09T02:14:11.471Z,12.90
2023-04-09T02:17:11.040Z,13.40
2023-04-09T02:20:01.775Z,12.80
2023-04-09T02:22:54.991Z,13.60
2023-04-09T02:25:46.217Z,12.80
2023-04-09T02:28:37.951Z,13.30
2023-04-09T02:31:33.139Z,12.70
2023-04-09T02:34:25.907Z,13.00
2023-04-09T02:37:19.432Z,12.90
2023-04-09T02:40:15.405Z,13.10
2023-04-09T02:43:08.560Z,13.90
2023-04-09T02:45:59.314Z,13.40
2023-04-09T02:48:52.052Z,13.40
2023-04-09T02:51:47.894Z,14.00
2023-04-09T02:54:38.559Z,14.80
2023-04-09T02:57:30.577Z,13.60
2023-04-09T03:00:21.309Z,14.90
2023-04-09T03:03:13.593Z,15.20
2023-04-09T03:06:05.866Z,16.10
2023-04-09T03:08:56.798Z,16.10
2023-04-09T03:11:48.898Z,15.00
2023-04-09T03:14:40.133Z,17.70
2023-04-09T03:17:32.216Z,15.60
2023-04-09T03:20:25.223Z,15.40
2023-04-09T03:23:16.236Z,16.80
2023-04-09T03:26:10.250Z,16.70
2023-04-09T03:29:11.796Z,17.40
2023-04-09T03:32:06.524Z,17.00
2023-04-09T03:34:57.933Z,16.70
2023-04-09T03:37:55.858Z,16.90
2023-04-09T03:40:46.799Z,18.20
2023-04-09T03:43:42.339Z,18.50
2023-04-09T03:46:38.727Z,16.80
2023-04-09T03:49:32.046Z,19.20
2023-04-09T03:52:29.694Z,17.70
2023-04-09T03:55:28.301Z,15.40
2023-04-09T03:58:20.152Z,19.60
2023-04-09T04:01:14.551Z,20.00
2023-04-09T04:04:16.728Z,17.90
2023-04-09T04:07:19.088Z,20.80
2023-04-09T04:10:27.436Z,18.70
2023-04-09T04:13:18.598Z,22.00
2023-04-09T04:16:15.474Z,21.20
2023-04-09T04:19:07.897Z,21.10
2023-04-09T04:22:03.480Z,21.60
2023-04-09T04:24:57.427Z,21.10
2023-04-09T04:27:49.167Z,20.70
2023-04-09T04:30:43.887Z,20.20
2023-04-09T04:33:39.236Z,22.10
2023-04-09T04:36:34.373Z,21.60
2023-04-09T04:39:26.715Z,25.80
2023-04-09T04:42:25.930Z,23.20
2023-04-09T04:45:17.838Z,23.00
2023-04-09T04:48:13.344Z,24.70
2023-04-09T04:51:04.360Z,22.10
2023-04-09T04:54:01.131Z,25.80
2023-04-09T04:56:54.584Z,22.40
2023-04-09T05:00:08.926Z,27.00
2023-04-09T05:03:00.424Z,23.90
2023-04-09T05:06:27.087Z,27.40
2023-04-09T05:09:22.484Z,27.40
2023-04-09T05:15:23.194Z,36.30
2023-04-09T05:18:15.355Z,27.60
2023-04-09T05:21:06.623Z,26.70
2023-04-09T05:23:59.648Z,29.10
2023-04-09T05:26:58.092Z,30.50
2023-04-09T05:29:52.665Z,29.10
2023-04-09T05:32:43.555Z,29.10
2023-04-09T05:35:40.273Z,28.80
2023-04-09T05:38:32.807Z,29.50
2023-04-09T05:41:23.741Z,31.30
2023-04-09T05:44:30.061Z,30.70
2023-04-09T05:47:28.950Z,31.20
2023-04-09T05:50:47.533Z,29.40
2023-04-09T05:53:45.897Z,32.40
2023-04-09T05:56:38.415Z,37.20
2023-04-09T05:59:31.225Z,33.30
2023-04-09T06:02:27.257Z,33.00
2023-04-09T06:05:18.193Z,35.60
2023-04-09T06:08:14.167Z,35.20
2023-04-09T06:11:07.930Z,36.70
2023-04-09T06:13:58.639Z,35.60
2023-04-09T06:16:49.818Z,38.90
2023-04-09T06:19:40.272Z,39.20
2023-04-09T06:22:32.527Z,37.30
2023-04-09T06:25:23.520Z,40.10
2023-04-09T06:28:18.236Z,37.20
2023-04-09T06:31:12.433Z,39.10
2023-04-09T06:34:06.528Z,41.30
2023-04-09T06:36:57.505Z,41.70
2023-04-09T06:40:00.504Z,40.40
2023-04-09T06:42:52.116Z,44.10
2023-04-09T06:45:53.853Z,40.80
2023-04-09T06:48:44.825Z,41.60
2023-04-09T06:51:37.424Z,42.60
2023-04-09T06:54:28.437Z,42.10
2023-04-09T06:57:25.191Z,40.30
2023-04-09T07:00:20.419Z,41.10
2023-04-09T07:03:13.925Z,39.50
2023-04-09T07:06:04.945Z,43.30
2023-04-09T07:08:55.904Z,42.20
2023-04-09T07:11:47.740Z,42.90
2023-04-09T07:14:38.941Z,42.60
2023-04-09T07:17:32.151Z,44.70
2023-04-09T07:20:25.392Z,42.30
2023-04-09T07:23:18.680Z,47.10
2023-04-09T07:26:10.733Z,47.10
2023-04-09T07:29:03.732Z,47.50
2023-04-09T07:31:55.167Z,47.60
2023-04-09T07:34:48.652Z,46.60
2023-04-09T07:37:41.899Z,44.30
2023-04-09T07:40:34.011Z,44.50
2023-04-09T07:43:26.263Z,46.10
2023-04-09T07:46:24.579Z,42.20
2023-04-09T07:52:08.786Z,41.40
2023-04-09T07:55:05.059Z,41.70
2023-04-09T07:58:00.149Z,40.20
2023-04-09T08:00:53.059Z,49.00
2023-04-09T08:03:44.551Z,43.00
2023-04-09T08:06:36.163Z,37.70
2023-04-09T08:09:27.063Z,42.80
2023-04-09T08:12:17.566Z,35.90
2023-04-09T08:15:10.162Z,35.90
2023-04-09T08:18:03.139Z,33.60
2023-04-09T08:20:53.827Z,30.50
2023-04-09T08:23:44.506Z,35.50
2023-04-09T08:26:35.280Z,30.80
2023-04-09T08:29:25.903Z,28.50
2023-04-09T08:32:16.557Z,27.00
2023-04-09T08:35:09.163Z,24.20
2023-04-09T08:37:59.823Z,22.00
2023-04-09T08:40:50.319Z,24.40
2023-04-09T08:43:56.229Z,22.90
2023-04-09T08:46:48.802Z,24.10
2023-04-09T08:49:39.534Z,24.30
2023-04-09T08:52:35.589Z,21.60
2023-04-09T08:55:26.177Z,20.30
2023-04-09T08:58:17.157Z,20.60
2023-04-09T09:01:08.040Z,22.20
2023-04-09T09:04:00.723Z,20.60
2023-04-09T09:06:51.211Z,21.30
2023-04-09T09:09:54.464Z,21.10
2023-04-09T09:12:44.986Z,20.90
2023-04-09T09:15:35.721Z,21.10
2023-04-09T09:18:40.497Z,19.80
2023-04-09T09:21:31.748Z,24.00
2023-04-09T09:24:22.219Z,30.00
2023-04-09T09:27:12.991Z,34.00
2023-04-09T09:30:03.720Z,31.10
2023-04-09T09:32:55.675Z,32.00
2023-04-09T09:35:54.149Z,32.00
2023-04-09T09:41:47.387Z,36.50
2023-04-09T09:44:38.357Z,29.60
2023-04-09T09:47:29.548Z,36.50
2023-04-09T09:50:20.130Z,31.60
2023-04-09T09:53:12.010Z,33.40
2023-04-09T09:56:03.187Z,51.90
2023-04-09T09:58:56.119Z,42.70
2023-04-09T10:01:47.306Z,31.40
2023-04-09T10:04:38.275Z,28.10
2023-04-09T10:07:28.735Z,29.60
2023-04-09T10:10:19.643Z,33.10
2023-04-09T10:13:11.064Z,28.00
2023-04-09T10:16:01.950Z,26.70
2023-04-09T10:18:52.656Z,30.20
2023-04-09T10:21:47.693Z,28.60
2023-04-09T10:24:38.699Z,32.20
2023-04-09T10:27:29.207Z,35.60
2023-04-09T10:30:36.711Z,32.50
2023-04-09T10:33:29.009Z,36.80
2023-04-09T10:36:22.423Z,35.80
2023-04-09T10:39:15.807Z,35.60
2023-04-09T10:42:12.775Z,33.60
2023-04-09T10:45:11.239Z,36.60
2023-04-09T10:48:03.998Z,34.40
2023-04-09T10:50:54.532Z,34.90
2023-04-09T10:53:45.044Z,34.10
2023-04-09T10:56:35.670Z,32.80
2023-04-09T10:59:27.074Z,31.20
2023-04-09T11:03:01.742Z,31.40
2023-04-09T11:05:55.140Z,29.20
2023-04-09T11:08:48.349Z,33.90
2023-04-09T11:11:38.912Z,29.20
2023-04-09T11:14:29.175Z,32.20
2023-04-09T11:17:19.840Z,31.40
2023-04-09T11:20:11.323Z,32.30
2023-04-09T11:23:01.788Z,35.40
2023-04-09T11:25:52.506Z,33.40
2023-04-09T11:28:45.366Z,35.20
2023-04-09T11:31:35.951Z,31.50
2023-04-09T11:34:29.770Z,31.70
2023-04-09T11:37:20.090Z,31.40
2023-04-09T11:40:17.731Z,31.90
2023-04-09T11:43:10.927Z,32.60
2023-04-09T11:46:01.766Z,34.20
2023-04-09T11:48:52.453Z,30.90
2023-04-09T11:51:43.284Z,34.10
2023-04-09T11:54:35.513Z,33.50
2023-04-09T11:57:26.532Z,33.80
2023-04-09T12:00:18.036Z,35.00
2023-04-09T12:03:09.132Z,38.40
2023-04-09T12:06:00.008Z,33.50
2023-04-09T12:08:53.771Z,34.70
2023-04-09T12:11:46.381Z,34.30
2023-04-09T12:14:36.977Z,35.80
2023-04-09T12:17:27.427Z,36.40
2023-04-09T12:20:32.924Z,37.40
2023-04-09T12:23:23.434Z,35.40
2023-04-09T12:26:14.759Z,34.30
2023-04-09T12:29:05.112Z,31.90
2023-04-09T12:31:56.192Z,36.70
2023-04-09T12:34:47.563Z,37.10
2023-04-09T12:37:38.071Z,39.20
2023-04-09T12:40:29.164Z,38.90
2023-04-09T12:43:19.981Z,35.70
2023-04-09T12:46:10.569Z,38.90
2023-04-09T12:49:01.185Z,41.30
2023-04-09T12:51:52.242Z,36.90
2023-04-09T12:54:44.541Z,38.00
2023-04-09T12:57:35.037Z,41.30
2023-04-09T13:00:25.753Z,42.40
2023-04-09T13:03:17.324Z,40.60
2023-04-09T13:06:09.342Z,38.60
2023-04-09T13:09:00.468Z,38.70
2023-04-09T13:11:51.711Z,42.40
2023-04-09T13:14:44.134Z,42.00
2023-04-09T13:17:34.846Z,39.80
2023-04-09T13:20:25.552Z,38.40
2023-04-09T13:23:16.071Z,41.60
2023-04-09T13:26:07.098Z,42.70
2023-04-09T13:28:57.646Z,39.90
2023-04-09T13:31:48.195Z,38.40
2023-04-09T13:34:38.954Z,37.20
2023-04-09T13:37:29.778Z,40.20
2023-04-09T13:40:20.700Z,38.10
2023-04-09T13:43:11.263Z,39.50
2023-04-09T13:46:01.911Z,40.40
2023-04-09T13:48:52.972Z,43.00
2023-04-09T13:51:43.884Z,38.50
2023-04-09T13:54:34.633Z,41.90
2023-04-09T13:57:25.196Z,39.60
2023-04-09T14:00:16.996Z,39.00
2023-04-09T14:03:08.042Z,38.50
2023-04-09T14:05:58.526Z,35.80
2023-04-09T14:08:49.692Z,38.60
2023-04-09T14:11:40.228Z,34.80
2023-04-09T14:14:30.797Z,38.40
2023-04-09T14:17:21.731Z,40.30
2023-04-09T14:20:13.203Z,43.10
2023-04-09T14:23:03.794Z,42.70
2023-04-09T14:25:54.597Z,47.90
2023-04-09T14:28:44.975Z,47.40
2023-04-09T14:31:35.438Z,42.40
2023-04-09T14:34:25.829Z,43.90
2023-04-09T14:37:16.488Z,41.20
2023-04-09T14:40:08.379Z,44.00
2023-04-09T14:42:58.792Z,42.30
2023-04-09T14:45:49.174Z,43.20
2023-04-09T14:48:40.596Z,40.20
2023-04-09T14:51:31.696Z,44.00
2023-04-09T14:54:22.141Z,43.30
2023-04-09T14:57:12.858Z,43.70
2023-04-09T15:00:06.078Z,41.50
2023-04-09T15:02:56.939Z,42.20
2023-04-09T15:05:48.130Z,43.00
2023-04-09T15:08:39.082Z,41.60
2023-04-09T15:11:29.960Z,40.10
2023-04-09T15:14:21.015Z,41.50
2023-04-09T15:17:11.420Z,38.20
2023-04-09T15:20:01.900Z,38.10
2023-04-09T15:22:52.538Z,39.60
2023-04-09T15:25:42.995Z,40.80
2023-04-09T15:28:33.497Z,39.20
2023-04-09T15:31:23.933Z,36.10
2023-04-09T15:34:15.243Z,40.00
2023-04-09T15:37:05.875Z,38.10
2023-04-09T15:39:56.647Z,38.40
2023-04-09T15:42:47.462Z,39.20
2023-04-09T15:45:38.200Z,38.60
2023-04-09T15:48:28.692Z,43.90
2023-04-09T15:51:19.182Z,39.00
2023-04-09T15:54:09.657Z,40.70
2023-04-09T15:57:00.190Z,42.60
2023-04-09T15:59:52.043Z,39.70
2023-04-09T16:02:42.832Z,42.90
2023-04-09T16:05:33.312Z,40.30
2023-04-09T16:08:23.919Z,38.50
2023-04-09T16:11:15.072Z,40.60
2023-04-09T16:14:05.883Z,42.40
2023-04-09T16:16:56.349Z,42.50
2023-04-09T16:19:46.888Z,41.70
2023-04-09T16:22:37.479Z,39.60
2023-04-09T16:25:28.106Z,42.70
2023-04-09T16:28:19.477Z,42.80
2023-04-09T16:31:10.141Z,41.20
2023-04-09T16:34:00.722Z,44.80
2023-04-09T16:36:51.753Z,42.40
2023-04-09T16:39:42.361Z,43.80
2023-04-09T16:42:33.256Z,42.20
2023-04-09T16:45:23.950Z,45.80
2023-04-09T16:48:14.626Z,44.00
2023-04-09T16:51:05.039Z,43.20
2023-04-09T16:53:55.838Z,41.40
2023-04-09T16:56:46.505Z,43.80
2023-04-09T16:59:36.761Z,43.60
2023-04-09T17:02:27.786Z,45.80
2023-04-09T17:05:18.581Z,46.30
2023-04-09T17:08:09.315Z,48.00
2023-04-09T17:11:02.998Z,50.00
2023-04-09T17:13:54.445Z,47.90
2023-04-09T17:16:45.829Z,44.60
2023-04-09T17:19:36.828Z,46.10
2023-04-09T17:22:27.276Z,42.90
2023-04-09T17:25:18.247Z,45.20
2023-04-09T17:28:09.663Z,47.10
2023-04-09T17:31:00.186Z,47.80
2023-04-09T17:33:51.017Z,48.40
2023-04-09T17:36:42.586Z,47.30
2023-04-09T17:39:33.307Z,47.50
2023-04-09T17:42:24.626Z,48.70
2023-04-09T17:45:16.166Z,46.60
2023-04-09T17:48:07.026Z,47.50
2023-04-09T17:50:58.232Z,50.70
2023-04-09T17:53:48.815Z,45.70
2023-04-09T17:56:39.167Z,42.60
2023-04-09T17:59:29.968Z,43.00
2023-04-09T18:02:21.724Z,49.30
2023-04-09T18:05:13.710Z,45.10
2023-04-09T18:08:04.578Z,49.90
2023-04-09T18:11:11.528Z,47.00
2023-04-09T18:14:07.997Z,45.10
2023-04-09T18:16:58.311Z,47.50
2023-04-09T18:19:49.259Z,50.90
2023-04-09T18:22:40.040Z,46.70
2023-04-09T18:25:30.771Z,47.10
2023-04-09T18:28:21.452Z,43.50
2023-04-09T18:31:13.427Z,48.00
2023-04-09T18:34:03.835Z,41.60
2023-04-09T18:36:54.654Z,40.30
2023-04-09T18:39:45.187Z,46.10
2023-04-09T18:42:36.033Z,42.70
2023-04-09T18:45:26.722Z,45.60
2023-04-09T18:48:17.215Z,45.00
2023-04-09T18:51:08.499Z,44.50
2023-04-09T18:54:00.673Z,48.70
2023-04-09T18:56:51.386Z,51.80
2023-04-09T18:59:42.278Z,53.00
2023-04-09T19:02:33.376Z,51.70
2023-04-09T19:05:24.186Z,60.30
2023-04-09T19:08:14.995Z,61.40
2023-04-09T19:11:06.323Z,56.30
2023-04-09T19:13:57.236Z,52.70
2023-04-09T19:16:47.968Z,51.70
2023-04-09T19:19:38.398Z,54.40
2023-04-09T19:22:29.971Z,48.60
2023-04-09T19:25:20.360Z,54.10
2023-04-09T19:28:11.675Z,53.90
2023-04-09T19:31:03.616Z,53.40
2023-04-09T19:33:54.530Z,49.40
2023-04-09T19:36:44.953Z,49.50
2023-04-09T19:39:35.799Z,53.70
2023-04-09T19:42:28.647Z,51.50
2023-04-09T19:45:19.880Z,54.60
2023-04-09T19:48:10.843Z,58.80
2023-04-09T19:51:02.110Z,65.80
2023-04-09T19:53:52.932Z,64.80
2023-04-09T19:56:43.479Z,68.70
2023-04-09T19:59:37.459Z,71.00
2023-04-09T20:02:28.300Z,72.60
2023-04-09T20:05:21.042Z,75.40
2023-04-09T20:08:15.616Z,81.40
2023-04-09T20:11:06.964Z,79.50
2023-04-09T20:13:58.563Z,83.50
2023-04-09T20:16:49.302Z,76.90
2023-04-09T20:19:43.308Z,77.50
2023-04-09T20:22:37.034Z,72.50
2023-04-09T20:25:34.973Z,83.10
2023-04-09T20:28:26.113Z,81.00
2023-04-09T20:31:17.406Z,74.70
2023-04-09T20:34:09.478Z,70.00
2023-04-09T20:37:00.643Z,74.70
2023-04-09T20:39:51.600Z,70.70
2023-04-09T20:42:42.846Z,71.00
2023-04-09T20:45:35.259Z,69.70
2023-04-09T20:48:26.514Z,62.60
2023-04-09T20:51:18.194Z,67.20
2023-04-09T20:54:09.449Z,68.20
2023-04-09T20:57:01.820Z,64.90
2023-04-09T20:59:53.999Z,61.20
2023-04-09T21:02:45.092Z,69.00
2023-04-09T21:05:36.865Z,71.20
2023-04-09T21:08:27.647Z,69.40
2023-04-09T21:11:18.033Z,70.60
2023-04-09T21:14:10.950Z,72.80
2023-04-09T21:17:01.446Z,72.20
2023-04-09T21:19:53.281Z,72.20
2023-04-09T21:22:43.814Z,72.30
2023-04-09T21:25:37.003Z,69.20
2023-04-09T21:28:28.477Z,67.00
2023-04-09T21:31:18.821Z,67.70
2023-04-09T21:34:09.287Z,70.70
2023-04-09T21:36:59.834Z,66.40
2023-04-09T21:39:50.420Z,66.30
2023-04-09T21:42:41.136Z,65.70
2023-04-09T21:45:32.190Z,70.40
2023-04-09T21:48:22.748Z,67.10
2023-04-09T21:51:13.597Z,65.80
2023-04-09T21:54:07.718Z,66.60
2023-04-09T21:56:58.328Z,64.70
2023-04-09T21:59:48.760Z,64.50
2023-04-09T22:02:40.273Z,65.00
2023-04-09T22:05:31.201Z,69.40
2023-04-09T22:08:21.611Z,64.10
2023-04-09T22:11:12.198Z,68.20
2023-04-09T22:14:02.584Z,63.70
2023-04-09T22:16:54.150Z,66.10
2023-04-09T22:19:44.674Z,65.10
2023-04-09T22:22:35.176Z,60.80
2023-04-09T22:25:26.084Z,68.20
2023-04-09T22:28:16.813Z,64.00
2023-04-09T22:31:07.887Z,65.90
2023-04-09T22:34:10.079Z,61.50
2023-04-09T22:37:07.933Z,59.40
2023-04-09T22:39:58.843Z,62.70
2023-04-09T22:42:50.068Z,63.90
2023-04-09T22:45:40.759Z,68.40
2023-04-09T22:48:31.371Z,65.50
2023-04-09T22:51:23.674Z,69.00
2023-04-09T22:54:14.246Z,67.10
2023-04-09T22:57:04.752Z,65.00
2023-04-09T22:59:55.446Z,66.90
2023-04-09T23:02:47.499Z,64.90
2023-04-09T23:05:38.251Z,65.30
2023-04-09T23:08:28.702Z,62.70
2023-04-09T23:11:19.168Z,64.30
2023-04-09T23:14:09.502Z,66.00
2023-04-09T23:16:59.993Z,67.00
2023-04-09T23:19:50.306Z,62.70
2023-04-09T23:22:40.892Z,62.80
2023-04-09T23:25:31.478Z,66.20
2023-04-09T23:28:22.211Z,62.70
2023-04-09T23:31:12.792Z,66.60
2023-04-09T23:34:03.813Z,65.10
2023-04-09T23:36:54.324Z,65.50
2023-04-09T23:39:44.784Z,62.80
2023-04-09T23:42:35.247Z,63.00
2023-04-09T23:45:25.666Z,63.70
2023-04-09T23:48:16.274Z,64.00
2023-04-09T23:51:07.378Z,64.20
2023-04-09T23:53:58.022Z,64.50
2023-04-09T23:56:48.647Z,70.70
2023-04-09T23:59:39.475Z,69.20
